Tropical Cyclones
[Index]
Main Index Home Page Stock Weather Photos Extreme Storms Discussion Storm News and Storm Chasing Reports Tropical Cyclones / Hurricanes / Typhoons Weather Data and Links Wild Fires / Bushfires Weather Observation Techniques Weather Picture Catalogue Tornado Pictures and Reports Stock Video Footage and DVDs for sale
Season 1986-1987 Tropical Cyclone TUSI Track Map
Season 1986-1987 Summaries: [BoM-AU] [JTWC-AU] [JTWC-SIO] [JTWC-SPAC] [JTWC-SH]
<<- Previous TC | JTWC 1986-1987 Season | Next TC ->>

click for intensity scale information  Lat/long Grid: Show Hide

 Date Labels: Show Hide

Joint Typhoon Warning Centre Cyclone Data

Name: TUSI

15 Jan 1987 00:00 UTC to 20 Jan 1987 06:00 UTC

    date/time    lat    long     hPa   cat  kts
1987-01-15 00    8.9   172.6W                 25          
1987-01-15 06   10.2   172.0W                 30          
1987-01-15 12   10.9   171.6W                 30          
1987-01-15 18   10.8   171.3W                 35          
1987-01-16 00   10.7   171.0W                 35          
1987-01-16 06   10.8   170.6W           1     40          
1987-01-16 12   10.9   170.3W           1     45          
1987-01-16 18   10.7   170.2W           2     55          
1987-01-17 00   10.7   170.3W           2     55          
1987-01-17 06   11.1   170.2W           2     60          
1987-01-17 12   11.8   170.0W           2     70          
1987-01-17 18   12.7   169.9W           3     90          
1987-01-18 00   13.6   169.6W           3     90          
1987-01-18 06   14.3   169.1W           3     95          
1987-01-18 12   15.3   168.6W           4    100          
1987-01-18 18   16.3   167.9W           3     95          
1987-01-19 00   17.4   167.1W           3     90          
1987-01-19 06   18.5   166.5W           3     90          
1987-01-19 12   19.5   165.9W           2     70          
1987-01-19 18   20.5   165.0W           1     45          
1987-01-20 00   21.5   163.6W           1     40          
1987-01-20 06   22.4   161.9W                 35          
Winds are 1-min average.

Tropical cyclone tracks developed by Michael Bath using data from the Joint Typhoon Warning Centre Best Tracks and Google Maps.


[Australian Severe Weather index] [Copyright Notice] [Email Contacts] [Search This Site] [Privacy Policy]
Document: tropical_cyclone_tusi.htm Updated: 18 September 2016